Time;durP1;ratioP1;P1;durP2;ratioP2;P2;SDS_P1;SDS_P2;PMS_P1;PMS_P2;Temp;Humidity;BMP_temperature;BMP_pressure;BME280_temperature;BME280_humidity;BME280_pressure;Samples;Min_cycle;Max_cycle;Signal;HPM_P1;HPM_P2
2021/12/04 00:01:23;;;;;;;12.75;6.78;;;;;;;6.81;61.80;101225.53;5089347;28;20131;-64
2021/12/04 00:03:52;;;;;;;9.60;6.88;;;;;;;6.83;61.71;101225.47;5092162;28;20048;-57
2021/12/04 00:06:27;;;;;;;10.57;7.03;;;;;;;6.84;61.66;101240.22;5092164;28;20123;-63
2021/12/04 00:08:57;;;;;;;9.60;6.40;;;;;;;6.85;61.56;101250.59;5092375;28;20480;-63
2021/12/04 00:11:24;;;;;;;9.23;6.82;;;;;;;6.85;61.33;101245.38;5095802;28;20055;-61
2021/12/04 00:13:50;;;;;;;9.38;6.68;;;;;;;6.85;61.18;101241.94;5094697;28;20044;-60
2021/12/04 00:16:17;;;;;;;9.38;6.38;;;;;;;6.88;60.98;101249.63;5095642;28;20086;-57
2021/12/04 00:18:44;;;;;;;9.60;6.00;;;;;;;6.88;60.98;101241.81;5095312;28;20048;-57
2021/12/04 00:21:11;;;;;;;8.10;5.80;;;;;;;6.91;60.71;101236.50;5095749;28;20070;-58
2021/12/04 00:23:38;;;;;;;10.18;6.32;;;;;;;6.94;60.52;101239.00;5095851;28;20044;-58
2021/12/04 00:26:05;;;;;;;8.98;6.20;;;;;;;6.95;60.28;101235.50;5095638;28;20055;-60
2021/12/04 00:28:32;;;;;;;8.23;5.65;;;;;;;6.96;60.10;101238.97;5095586;28;20491;-63
2021/12/04 00:31:05;;;;;;;9.32;5.78;;;;;;;6.98;60.05;101231.94;5101090;28;20051;-57
2021/12/04 00:33:32;;;;;;;6.25;4.82;;;;;;;6.98;59.83;101237.16;5107025;28;20051;-57
2021/12/04 00:36:02;;;;;;;7.57;5.78;;;;;;;6.98;59.57;101231.94;5095356;28;20458;-63
2021/12/04 00:49:20;;;;;;;8.00;4.97;;;;;;;7.03;59.21;101201.31;5094629;28;20492;-56
2021/12/04 00:51:55;;;;;;;7.47;5.13;;;;;;;7.04;59.07;101205.63;5095281;28;20097;-63
2021/12/04 00:54:25;;;;;;;7.15;5.15;;;;;;;7.03;58.94;101204.78;5095137;28;20097;-57
2021/12/04 00:56:52;;;;;;;6.90;4.90;;;;;;;7.06;58.92;101211.66;5095144;28;20044;-57
2021/12/04 00:59:19;;;;;;;6.45;4.45;;;;;;;7.03;58.56;101220.44;5095260;28;20052;-57
2021/12/04 01:01:46;;;;;;;5.93;4.45;;;;;;;7.02;58.86;101221.34;5094881;28;20500;-58
2021/12/04 01:04:17;;;;;;;7.85;4.95;;;;;;;7.00;58.75;101225.75;5094465;28;20070;-63
2021/12/04 01:06:45;;;;;;;8.30;5.55;;;;;;;6.96;59.13;101225.94;5094895;28;20048;-57
2021/12/04 01:09:13;;;;;;;7.43;5.40;;;;;;;6.88;59.66;101222.72;5094561;28;20052;-61
2021/12/04 01:11:41;;;;;;;9.07;5.80;;;;;;;6.82;59.61;101229.84;5094709;28;20044;-57
2021/12/04 01:14:11;;;;;;;7.50;6.03;;;;;;;6.75;59.94;101225.72;5094725;28;20048;-63
2021/12/04 01:16:38;;;;;;;8.55;5.70;;;;;;;6.72;60.05;101228.44;5094695;28;20044;-58
2021/12/04 01:19:05;;;;;;;9.82;6.38;;;;;;;6.72;60.04;101218.00;5094055;28;20047;-57
2021/12/04 01:21:32;;;;;;;8.65;6.38;;;;;;;6.69;60.04;101218.97;5094337;28;20415;-57
2021/12/04 01:23:59;;;;;;;10.15;6.80;;;;;;;6.69;60.12;101216.34;5094627;28;20051;-57
2021/12/04 01:26:26;;;;;;;9.40;6.30;;;;;;;6.69;60.19;101213.75;5094446;28;20522;-57
2021/12/04 01:28:53;;;;;;;8.05;6.07;;;;;;;6.69;60.24;101211.13;5094378;28;20101;-57
2021/12/04 01:31:20;;;;;;;8.35;6.13;;;;;;;6.66;60.32;101198.19;5093262;28;20040;-57
2021/12/04 01:33:48;;;;;;;9.05;6.18;;;;;;;6.65;60.67;101196.50;5094356;28;20040;-63
2021/12/04 01:36:15;;;;;;;8.20;5.50;;;;;;;6.64;60.70;101201.75;5093819;28;20052;-57
2021/12/04 01:38:42;;;;;;;7.95;5.90;;;;;;;6.64;60.82;101197.41;5094275;28;20040;-63
2021/12/04 01:41:09;;;;;;;8.05;6.05;;;;;;;6.61;60.92;101192.28;5094262;28;20040;-60
2021/12/04 01:43:37;;;;;;;8.82;5.75;;;;;;;6.59;61.12;101186.28;5094211;28;20048;-57
2021/12/04 01:46:04;;;;;;;10.13;5.88;;;;;;;6.56;61.45;101175.09;5094018;28;20044;-57
2021/12/04 01:48:31;;;;;;;8.30;6.13;;;;;;;6.53;61.45;101166.44;5093988;28;20078;-63
2021/12/04 01:50:58;;;;;;;7.93;6.22;;;;;;;6.48;61.68;101173.56;5093815;28;20044;-57
2021/12/04 01:53:26;;;;;;;7.88;6.10;;;;;;;6.42;61.98;101168.56;5093567;28;20396;-60
2021/12/04 01:55:55;;;;;;;7.13;6.03;;;;;;;6.43;61.94;101159.00;5093915;28;20047;-63
2021/12/04 01:58:23;;;;;;;9.07;6.03;;;;;;;6.39;62.13;101158.25;5093906;28;20074;-57
2021/12/04 02:00:51;;;;;;;7.07;5.85;;;;;;;6.37;61.86;101153.09;5093883;28;20079;-57
2021/12/04 02:03:19;;;;;;;8.73;6.05;;;;;;;6.34;62.12;101153.16;5093869;28;20044;-63
2021/12/04 02:05:52;;;;;;;9.27;6.10;;;;;;;6.32;62.15;101147.16;5093699;28;20054;-64
2021/12/04 02:08:22;;;;;;;7.22;5.57;;;;;;;6.28;62.17;101142.09;5093916;28;20051;-63
2021/12/04 02:10:52;;;;;;;7.38;5.45;;;;;;;6.26;62.32;101142.16;5092766;28;20542;-57
2021/12/04 02:13:19;;;;;;;8.40;5.55;;;;;;;6.23;62.42;101136.19;5093804;28;20048;-57
2021/12/04 02:15:47;;;;;;;8.88;6.53;;;;;;;6.21;62.50;101141.44;5093597;28;20047;-57
2021/12/04 02:18:16;;;;;;;10.90;6.93;;;;;;;6.21;62.49;101141.44;5093410;28;20056;-60
2021/12/04 02:20:43;;;;;;;10.23;6.38;;;;;;;6.19;62.44;101130.22;5093508;28;20055;-57
2021/12/04 02:23:11;;;;;;;12.13;7.20;;;;;;;6.14;62.69;101122.53;5093322;28;20058;-57
2021/12/04 02:25:38;;;;;;;10.40;7.03;;;;;;;6.09;62.79;101116.63;5092900;28;20044;-57
2021/12/04 02:28:07;;;;;;;12.38;7.40;;;;;;;6.08;62.79;101119.28;5093234;28;20048;-57
2021/12/04 02:30:36;;;;;;;10.23;7.00;;;;;;;6.05;62.79;101117.63;5093252;28;20063;-57
2021/12/04 02:33:11;;;;;;;9.18;6.70;;;;;;;6.03;62.84;101122.00;5092500;28;20052;-64
2021/12/04 02:35:47;;;;;;;12.25;7.43;;;;;;;5.98;63.02;101118.66;5093177;28;20048;-57
2021/12/04 02:38:16;;;;;;;12.45;7.60;;;;;;;5.94;63.21;101112.72;5093056;28;20128;-57
2021/12/04 02:40:44;;;;;;;10.55;6.82;;;;;;;5.93;63.18;101103.22;5092645;28;20048;-58
2021/12/04 02:43:11;;;;;;;8.82;6.78;;;;;;;5.89;63.29;101093.75;5093026;28;20050;-57
2021/12/04 02:45:39;;;;;;;10.23;6.45;;;;;;;5.84;63.26;101086.13;5093128;28;20484;-57
2021/12/04 02:48:06;;;;;;;12.38;8.20;;;;;;;5.80;63.25;101092.31;5093031;28;20058;-64
2021/12/04 02:50:33;;;;;;;13.30;8.30;;;;;;;5.78;63.17;101085.47;5092944;28;20051;-58
2021/12/04 02:52:59;;;;;;;13.50;8.38;;;;;;;5.78;63.23;101082.84;5092846;28;20040;-57
2021/12/04 02:55:26;;;;;;;11.98;8.90;;;;;;;5.80;63.08;101079.31;5093044;28;20048;-58
2021/12/04 02:57:53;;;;;;;15.68;8.95;;;;;;;5.80;63.08;101076.69;5092163;28;20043;-59
2021/12/04 03:00:23;;;;;;;17.95;9.50;;;;;;;5.80;63.15;101062.81;5092836;28;20051;-58
2021/12/04 03:02:50;;;;;;;12.50;8.65;;;;;;;5.78;63.29;101062.88;5092766;28;20458;-63
2021/12/04 03:05:23;;;;;;;14.45;9.27;;;;;;;5.78;63.52;101059.41;5092717;28;20047;-60
2021/12/04 03:07:52;;;;;;;15.88;8.30;;;;;;;5.75;63.67;101052.53;5092693;28;20415;-57
2021/12/04 03:10:18;;;;;;;15.25;8.70;;;;;;;5.73;63.73;101059.56;5092471;28;20458;-57
2021/12/04 03:12:45;;;;;;;13.95;9.05;;;;;;;5.72;63.77;101053.47;5092278;28;20044;-63
2021/12/04 03:15:13;;;;;;;11.68;7.85;;;;;;;5.70;63.56;101057.03;5091704;28;20101;-58
2021/12/04 03:17:40;;;;;;;10.13;7.32;;;;;;;5.63;63.91;101061.59;5092594;28;20040;-57
2021/12/04 03:20:07;;;;;;;11.63;7.72;;;;;;;5.60;63.73;101053.88;5092486;28;20455;-63
2021/12/04 03:22:34;;;;;;;12.63;7.90;;;;;;;5.58;63.64;101058.28;5092575;28;20055;-57
2021/12/04 03:25:01;;;;;;;15.25;7.97;;;;;;;5.54;63.42;101061.88;5092403;28;20052;-57
2021/12/04 03:27:30;;;;;;;14.57;8.15;;;;;;;5.46;63.60;101051.69;5092474;28;20476;-57
2021/12/04 03:30:15;;;;;;;12.63;7.63;;;;;;;5.45;63.46;101055.19;5092287;28;20048;-57
2021/12/04 03:35:17;;;;;;;14.02;8.57;;;;;;;5.46;63.39;101069.06;5091967;28;20044;-57
2021/12/04 03:40:59;;;;;;;13.70;8.23;;;;;;;5.46;63.13;101074.25;5092343;28;20403;-57
2021/12/04 03:43:25;;;;;;;13.45;8.52;;;;;;;5.49;63.16;101084.59;5093801;28;20051;-57
2021/12/04 03:45:57;;;;;;;14.55;8.27;;;;;;;5.48;62.91;101083.72;5096433;28;20128;-62
2021/12/04 03:51:02;;;;;;;15.30;9.25;;;;;;;5.42;62.91;101067.44;5096203;28;20058;-63
2021/12/04 03:53:29;;;;;;;13.68;9.30;;;;;;;5.41;63.15;101069.22;5096415;28;20044;-57
2021/12/04 03:55:56;;;;;;;13.80;8.55;;;;;;;5.37;63.04;101065.84;5096070;28;20484;-57
2021/12/04 03:58:24;;;;;;;13.77;8.52;;;;;;;5.38;63.20;101064.06;5096219;28;20054;-57
2021/12/04 04:00:51;;;;;;;12.40;8.30;;;;;;;5.38;63.02;101051.94;5096042;28;20044;-56
2021/12/04 04:03:19;;;;;;;13.38;8.52;;;;;;;5.39;63.23;101038.00;5094723;28;20066;-58
2021/12/04 04:05:46;;;;;;;15.02;8.20;;;;;;;5.40;63.09;101028.47;5091661;28;20047;-60
2021/12/04 04:08:15;;;;;;;12.48;7.68;;;;;;;5.42;62.93;101018.00;5092730;28;20049;-57
2021/12/04 04:10:43;;;;;;;9.55;7.30;;;;;;;5.39;62.86;101017.19;5092326;28;20062;-57
2021/12/04 04:13:12;;;;;;;10.90;7.97;;;;;;;5.39;62.94;101018.94;5092503;28;20051;-57
2021/12/04 04:15:40;;;;;;;11.80;7.10;;;;;;;5.41;62.65;101004.16;5092627;28;20044;-57
2021/12/04 04:18:08;;;;;;;11.60;6.53;;;;;;;5.37;62.80;101003.38;5092549;28;20138;-57
2021/12/04 04:20:35;;;;;;;10.77;6.30;;;;;;;5.36;62.63;101006.88;5092129;28;20052;-57
2021/12/04 04:23:02;;;;;;;10.30;6.88;;;;;;;5.36;62.56;101017.28;5092261;28;20131;-56
2021/12/04 04:25:29;;;;;;;11.40;6.38;;;;;;;5.36;62.64;101014.69;5092387;28;20048;-57
2021/12/04 04:27:56;;;;;;;10.88;6.60;;;;;;;5.37;62.48;101011.19;5092367;28;20089;-63
2021/12/04 04:30:22;;;;;;;8.82;6.28;;;;;;;5.38;62.43;101006.81;5092226;28;20059;-64
2021/12/04 04:32:51;;;;;;;10.05;6.80;;;;;;;5.40;62.21;101002.44;5092087;28;20498;-57
2021/12/04 04:35:23;;;;;;;12.90;6.07;;;;;;;5.41;62.27;101004.16;5092168;28;20043;-58
2021/12/04 04:38:06;;;;;;;8.77;5.68;;;;;;;5.40;62.21;100995.47;5091933;28;20051;-57
2021/12/04 05:13:21;;;;;;;8.43;4.38;;;;;;;4.98;61.99;100969.88;5091273;28;20048;-57
2021/12/04 05:18:34;;;;;;;8.13;5.47;;;;;;;4.98;61.83;100972.47;5091368;28;20044;-63
2021/12/04 05:21:05;;;;;;;;;;;;;;;4.94;61.70;100970.00;5091671;28;20085;-57
2021/12/04 05:23:38;;;;;;;7.32;4.75;;;;;;;4.97;61.57;100972.53;5091196;28;19928;-63
2021/12/04 05:26:07;;;;;;;8.63;5.18;;;;;;;4.93;61.64;100966.56;5090645;28;20068;-57
2021/12/04 05:28:33;;;;;;;7.13;4.88;;;;;;;4.91;61.62;100973.53;5091286;28;20070;-63
2021/12/04 05:31:01;;;;;;;8.57;4.78;;;;;;;4.88;61.65;100974.47;5090821;28;20048;-57
2021/12/04 05:33:28;;;;;;;9.82;5.40;;;;;;;4.84;61.64;100979.84;5097052;28;20048;-57
2021/12/04 05:35:55;;;;;;;6.10;4.38;;;;;;;4.83;61.57;100980.72;5090848;28;20044;-61
2021/12/04 05:38:23;;;;;;;9.30;4.90;;;;;;;4.78;61.63;100973.03;5090921;28;20488;-56
2021/12/04 05:40:51;;;;;;;7.35;4.78;;;;;;;4.77;61.55;100975.69;5105476;28;20104;-57
2021/12/04 05:43:22;;;;;;;12.02;5.15;;;;;;;4.73;61.60;100972.31;5109464;28;20078;-57
2021/12/04 05:45:55;;;;;;;10.48;5.57;;;;;;;4.72;61.33;100974.09;5090934;28;20943;-57
2021/12/04 05:49:01;;;;;;;6.47;4.85;;;;;;;4.68;61.43;100975.03;5090785;28;20044;-62
2021/12/04 05:51:27;;;;;;;7.78;4.53;;;;;;;4.67;61.59;100975.97;5088396;28;20055;-63
2021/12/04 05:54:02;;;;;;;7.88;4.68;;;;;;;4.66;61.37;100981.19;5090506;28;20044;-57
2021/12/04 05:56:30;;;;;;;7.72;5.15;;;;;;;4.64;61.50;100975.19;5090578;28;20044;-57
2021/12/04 05:58:58;;;;;;;11.30;5.75;;;;;;;4.64;61.30;100968.25;5090004;28;20039;-57
2021/12/04 06:01:27;;;;;;;10.18;5.28;;;;;;;4.62;61.35;100972.66;5090375;28;20044;-57
2021/12/04 06:03:54;;;;;;;9.73;5.70;;;;;;;4.63;61.32;100968.28;5090404;28;20073;-57
2021/12/04 06:06:20;;;;;;;8.82;5.38;;;;;;;4.58;61.29;100971.88;5090559;28;20044;-56
2021/12/04 06:08:47;;;;;;;11.07;5.72;;;;;;;4.56;61.38;100980.63;5090486;28;20052;-63
2021/12/04 06:11:14;;;;;;;9.32;4.80;;;;;;;4.54;61.37;100975.44;5109287;28;20062;-60
2021/12/04 06:13:41;;;;;;;6.30;4.82;;;;;;;4.56;61.22;100978.00;5110445;28;20051;-61
2021/12/04 06:16:08;;;;;;;9.23;5.00;;;;;;;4.55;61.10;100978.91;5092835;28;20416;-57
2021/12/04 06:18:39;;;;;;;10.15;6.05;;;;;;;4.56;60.93;100975.41;5090209;28;20093;-57
2021/12/04 06:23:51;;;;;;;9.18;5.53;;;;;;;4.53;60.77;100967.69;5091012;28;20047;-57
2021/12/04 06:26:18;;;;;;;8.05;5.35;;;;;;;4.56;60.58;100975.41;5089958;28;20044;-57
2021/12/04 06:28:44;;;;;;;10.45;5.15;;;;;;;4.57;60.43;100970.16;5089872;28;20048;-57
2021/12/04 06:31:12;;;;;;;11.38;5.68;;;;;;;4.56;60.38;100967.63;5105992;28;20092;-57
2021/12/04 06:33:40;;;;;;;11.90;5.07;;;;;;;4.56;60.18;100975.41;5091649;28;20055;-57
2021/12/04 06:36:08;;;;;;;12.15;5.57;;;;;;;4.52;60.32;100974.66;5090026;28;20511;-58
2021/12/04 06:38:35;;;;;;;8.73;5.63;;;;;;;4.60;60.00;100973.56;5101316;28;20510;-60
2021/12/04 06:41:03;;;;;;;10.82;5.60;;;;;;;4.60;59.84;100977.03;5089636;28;20488;-60
2021/12/04 06:43:31;;;;;;;9.77;5.40;;;;;;;4.60;59.83;100971.81;5089635;28;20048;-64
2021/12/04 06:46:02;;;;;;;10.95;6.20;;;;;;;4.63;59.81;100970.88;5089774;28;20052;-60
2021/12/04 06:48:43;;;;;;;12.23;6.35;;;;;;;4.61;59.63;100965.75;5089054;28;20498;-60
2021/12/04 06:56:06;;;;;;;12.02;6.60;;;;;;;4.67;59.67;100947.38;5089983;28;20823;-59
2021/12/04 06:58:33;;;;;;;12.55;6.70;;;;;;;4.70;59.47;100954.22;5089744;28;20048;-59
2021/12/04 07:00:59;;;;;;;12.68;7.07;;;;;;;4.74;59.17;100948.03;5089463;28;20048;-60
2021/12/04 07:03:27;;;;;;;14.85;7.10;;;;;;;4.78;58.94;100954.84;5089630;28;20044;-63
2021/12/04 07:05:53;;;;;;;15.90;7.57;;;;;;;4.77;58.97;100944.50;5088877;28;20047;-59
2021/12/04 07:08:20;;;;;;;14.55;7.30;;;;;;;4.82;58.94;100943.44;5089331;28;20056;-59
2021/12/04 07:10:47;;;;;;;12.23;7.20;;;;;;;4.85;59.11;100939.91;5089320;28;20135;-59
2021/12/04 07:13:14;;;;;;;15.32;7.57;;;;;;;4.84;59.05;100939.06;5089128;28;20052;-60
2021/12/04 07:15:44;;;;;;;17.15;8.02;;;;;;;4.83;59.01;100929.56;5089143;28;20044;-59
2021/12/04 07:18:11;;;;;;;16.95;7.43;;;;;;;4.86;59.24;100929.50;5088601;28;20051;-60
2021/12/04 07:20:39;;;;;;;16.60;7.53;;;;;;;4.88;59.04;100932.88;5089293;28;20067;-59
2021/12/04 07:23:06;;;;;;;13.15;7.18;;;;;;;4.90;59.07;100927.63;5088738;28;20055;-60
2021/12/04 07:25:33;;;;;;;23.25;8.90;;;;;;;4.88;59.13;100921.63;5089588;28;20113;-59
2021/12/04 07:27:59;;;;;;;16.52;8.65;;;;;;;4.90;58.94;100922.41;5089270;28;20051;-60
2021/12/04 07:30:26;;;;;;;21.83;8.73;;;;;;;4.95;58.92;100930.09;5094530;28;20109;-61
2021/12/04 07:32:54;;;;;;;17.65;8.38;;;;;;;5.00;58.60;100923.88;5109318;28;20044;-59
2021/12/04 07:35:21;;;;;;;15.00;8.43;;;;;;;5.03;58.71;100930.72;5109269;28;20070;-59
2021/12/04 07:37:48;;;;;;;15.90;8.35;;;;;;;5.05;58.61;100924.59;5101179;28;20110;-59
2021/12/04 07:40:19;;;;;;;18.30;9.57;;;;;;;5.11;58.56;100928.72;5089112;28;20048;-60
2021/12/04 07:42:45;;;;;;;18.77;8.98;;;;;;;5.19;58.33;100931.97;5088901;28;20044;-59
2021/12/04 07:45:12;;;;;;;16.02;9.82;;;;;;;5.23;58.36;100925.75;5087741;28;20052;-59
2021/12/04 07:47:39;;;;;;;20.25;9.40;;;;;;;5.29;58.18;100913.44;5090006;28;20086;-59
2021/12/04 07:50:08;;;;;;;19.30;9.95;;;;;;;5.37;58.30;100908.84;5101904;28;20483;-59
2021/12/04 07:52:35;;;;;;;19.58;9.70;;;;;;;5.50;57.91;100906.72;5088953;28;20480;-59
2021/12/04 07:55:02;;;;;;;16.27;9.48;;;;;;;5.60;57.72;100905.50;5091804;28;20047;-59
2021/12/04 07:57:29;;;;;;;24.20;9.48;;;;;;;5.75;57.32;100913.69;5098508;28;20043;-59
2021/12/04 07:59:56;;;;;;;20.80;11.05;;;;;;;5.88;57.10;100915.81;5099400;28;20113;-60
2021/12/04 08:02:22;;;;;;;17.02;9.88;;;;;;;6.05;56.77;100917.84;5097780;28;20066;-58
2021/12/04 08:04:49;;;;;;;20.23;9.98;;;;;;;6.24;56.46;100912.00;5106087;28;20040;-61
2021/12/04 08:07:16;;;;;;;19.02;10.48;;;;;;;6.45;55.93;100905.19;5108740;28;20051;-59
2021/12/04 08:09:43;;;;;;;17.00;9.70;;;;;;;6.73;55.51;100904.16;5108043;28;20582;-59
2021/12/04 08:12:10;;;;;;;15.23;9.13;;;;;;;7.03;54.90;100894.28;5093548;28;20056;-60
2021/12/04 08:14:48;;;;;;;16.20;9.00;;;;;;;7.36;53.96;100887.75;5096870;28;20044;-59
2021/12/04 08:17:17;;;;;;;19.73;9.18;;;;;;;7.61;53.52;100877.16;5097073;28;20127;-59
2021/12/04 08:19:44;;;;;;;16.40;9.73;;;;;;;7.66;53.47;100883.03;5098833;28;20044;-59
2021/12/04 08:22:11;;;;;;;15.95;9.18;;;;;;;7.67;53.56;100881.28;5098691;28;20040;-59
2021/12/04 08:24:38;;;;;;;16.10;9.32;;;;;;;7.65;53.80;100885.69;5097093;28;20048;-58
2021/12/04 08:27:05;;;;;;;15.00;9.07;;;;;;;7.50;54.21;100875.00;5098549;28;20487;-59
2021/12/04 08:29:31;;;;;;;15.95;10.27;;;;;;;7.43;54.21;100881.38;5096762;28;20397;-59
2021/12/04 08:31:58;;;;;;;15.38;9.45;;;;;;;7.46;54.25;100870.78;5100741;28;20052;-59
2021/12/04 08:34:25;;;;;;;14.52;9.32;;;;;;;7.51;54.51;100884.50;5102240;28;20044;-59
2021/12/04 08:36:52;;;;;;;20.98;9.93;;;;;;;7.49;54.63;100895.94;5102554;28;20044;-60
2021/12/04 08:39:20;;;;;;;15.80;10.02;;;;;;;7.42;55.00;100884.06;5101256;28;20040;-60
2021/12/04 08:41:47;;;;;;;13.90;9.48;;;;;;;7.37;55.39;100891.22;5112264;28;20389;-59
2021/12/04 08:44:15;;;;;;;15.18;9.73;;;;;;;7.36;55.54;100890.38;5101948;28;20103;-59
2021/12/04 08:46:42;;;;;;;18.13;10.80;;;;;;;7.37;55.69;100886.84;5105274;28;20058;-60
2021/12/04 08:49:09;;;;;;;16.85;10.40;;;;;;;7.35;56.08;100884.31;5111954;28;20078;-60
2021/12/04 08:51:36;;;;;;;14.70;10.02;;;;;;;7.36;56.08;100892.97;5112010;28;20051;-60
2021/12/04 08:54:04;;;;;;;16.45;10.05;;;;;;;7.36;56.22;100890.38;5108191;28;20515;-60
2021/12/04 08:56:33;;;;;;;16.55;10.45;;;;;;;7.42;56.62;100886.66;5095999;28;20048;-59
2021/12/04 08:59:01;;;;;;;14.70;10.10;;;;;;;7.45;56.31;100894.38;5091303;28;20048;-60
2021/12/04 09:01:34;;;;;;;15.50;9.48;;;;;;;7.50;56.72;100882.84;5103868;28;20127;-60
2021/12/04 09:04:09;;;;;;;14.88;8.68;;;;;;;7.53;56.78;100876.63;5111761;28;20043;-60
2021/12/04 09:06:37;;;;;;;12.40;8.50;;;;;;;7.55;56.76;100873.94;5111901;28;20051;-59
2021/12/04 09:09:06;;;;;;;13.68;9.23;;;;;;;7.62;56.75;100872.78;5111630;27;20533;-59
2021/12/04 09:11:37;;;;;;;14.75;9.48;;;;;;;7.64;56.49;100869.19;5111432;28;20058;-60
2021/12/04 09:14:05;;;;;;;16.20;9.35;;;;;;;7.71;56.31;100881.97;5111632;28;20096;-61
2021/12/04 09:16:33;;;;;;;12.18;8.95;;;;;;;7.79;56.16;100867.66;5102373;28;20040;-60
2021/12/04 09:19:00;;;;;;;13.38;9.35;;;;;;;7.94;55.87;100857.50;5111500;28;20075;-65
2021/12/04 09:21:27;;;;;;;13.82;8.60;;;;;;;8.10;55.44;100855.91;5109942;28;20048;-60
2021/12/04 09:24:14;;;;;;;14.68;7.95;;;;;;;8.09;55.33;100856.81;5099825;28;20138;-60
2021/12/04 09:31:58;;;;;;;11.60;8.18;;;;;;;8.69;53.99;100849.81;5092273;28;20104;-60
2021/12/04 10:35:15;;;;;;;18.83;10.18;;;;;;;7.92;55.78;100741.72;5090079;28;20514;-60
2021/12/04 10:38:01;;;;;;;22.90;11.45;;;;;;;7.91;55.86;100737.41;5089986;28;20521;-60
2021/12/04 10:40:40;;;;;;;17.85;10.98;;;;;;;7.92;56.02;100732.16;5089639;28;20040;-65
2021/12/04 10:43:15;;;;;;;11.25;7.88;;;;;;;7.90;55.81;100728.75;5099053;28;20048;-60
2021/12/04 10:45:47;;;;;;;42.63;21.05;;;;;;;7.84;56.02;100718.56;5097330;28;20066;-60
2021/12/04 10:48:24;;;;;;;25.48;15.40;;;;;;;7.83;55.89;100709.91;5100166;28;20602;-60
2021/12/04 10:51:03;;;;;;;20.17;9.27;;;;;;;7.88;55.65;100706.22;5109720;28;20083;-60
2021/12/04 10:53:34;;;;;;;11.93;7.78;;;;;;;7.87;55.71;100700.13;5108953;28;20112;-60
2021/12/04 11:04:31;;;;;;;12.10;7.53;;;;;;;7.86;55.22;100656.66;5097898;28;20044;-60
2021/12/04 11:45:19;;;;;;;11.10;7.57;;;;;;;7.69;54.42;100633.91;5108934;28;20052;-66
2021/12/04 11:47:52;;;;;;;13.73;7.82;;;;;;;7.70;54.63;100637.38;5109248;28;20129;-62
2021/12/04 11:50:28;;;;;;;11.60;7.80;;;;;;;7.68;54.64;100635.69;5109191;28;20407;-60
2021/12/04 11:52:56;;;;;;;;;;;;;;;7.71;54.94;100626.00;5102856;28;20059;-60
2021/12/04 11:55:26;;;;;;;16.02;9.43;;;;;;;7.75;55.04;100624.97;5088270;28;19926;-60
2021/12/04 11:57:54;;;;;;;16.10;8.50;;;;;;;7.75;55.30;100617.97;5088253;28;20044;-59
2021/12/04 12:00:28;;;;;;;13.77;8.88;;;;;;;7.80;55.10;100613.38;5088828;28;20059;-59
2021/12/04 12:03:19;;;;;;;14.07;10.13;;;;;;;7.87;54.96;100611.28;5088544;28;20052;-60
2021/12/04 12:06:10;;;;;;;11.52;7.90;;;;;;;7.90;54.99;100603.34;5092016;28;20492;-60
2021/12/04 12:08:41;;;;;;;9.45;7.22;;;;;;;7.90;54.79;100608.56;5092637;28;20040;-61
2021/12/04 12:11:10;;;;;;;10.18;8.15;;;;;;;7.92;54.80;100598.03;5109182;28;20055;-59
2021/12/04 12:13:55;;;;;;;9.10;7.78;;;;;;;7.91;54.83;100591.09;5112817;28;20051;-60
2021/12/04 12:16:26;;;;;;;10.55;6.82;;;;;;;7.92;54.84;100598.03;5112964;28;20040;-59
2021/12/04 12:19:06;;;;;;;11.63;7.32;;;;;;;7.90;54.92;100594.63;5112854;28;20051;-61
2021/12/04 12:21:59;;;;;;;10.77;8.07;;;;;;;7.89;55.04;100587.75;5112925;28;20051;-60
2021/12/04 12:36:12;;;;;;;10.32;6.90;;;;;;;7.78;54.65;100588.22;5103260;28;20040;-59
2021/12/04 12:38:45;;;;;;;8.93;6.82;;;;;;;7.78;54.91;100583.00;5097520;28;20062;-58
2021/12/04 12:41:24;;;;;;;13.70;7.53;;;;;;;7.76;54.92;100574.41;5101457;28;20044;-59
2021/12/04 12:44:06;;;;;;;11.13;7.30;;;;;;;7.76;54.97;100575.25;5104741;28;20066;-58
2021/12/04 12:46:47;;;;;;;10.85;6.82;;;;;;;7.73;54.85;100564.94;5100990;28;20361;-58
2021/12/04 12:49:44;;;;;;;24.08;10.02;;;;;;;7.75;54.84;100563.09;5102051;28;20054;-58
2021/12/04 12:52:26;;;;;;;15.45;7.32;;;;;;;7.79;54.92;100550.75;5100570;28;20047;-58
2021/12/04 12:54:55;;;;;;;15.43;8.20;;;;;;;7.79;54.78;100541.13;5101583;28;20094;-63
2021/12/04 12:57:26;;;;;;;12.20;6.88;;;;;;;7.82;54.81;100535.78;5099956;28;20147;-59
2021/12/04 13:11:41;;;;;;;13.80;8.23;;;;;;;7.79;55.03;100508.97;5101520;28;20055;-59
2021/12/04 13:14:15;;;;;;;14.60;8.07;;;;;;;7.78;55.18;100502.91;5096945;28;20059;-58
2021/12/04 13:16:47;;;;;;;10.90;8.65;;;;;;;7.79;55.29;100509.78;5097904;28;20036;-58
2021/12/04 13:19:18;;;;;;;13.88;9.23;;;;;;;7.78;55.31;100508.13;5100255;28;20047;-59
2021/12/04 13:21:48;;;;;;;13.07;4.88;;;;;;;8.03;55.51;100503.44;5099371;28;20044;-60
2021/12/04 13:24:16;;;;;;;20.02;10.60;;;;;;;8.10;57.21;100502.19;5090936;28;20073;-60
2021/12/04 13:26:49;;;;;;;14.85;10.20;;;;;;;7.94;57.47;100497.75;5100019;28;20040;-59
2021/12/04 13:29:19;;;;;;;12.80;9.68;;;;;;;7.84;57.62;100494.72;5105968;28;20036;-60
2021/12/04 13:31:47;;;;;;;14.77;9.43;;;;;;;7.84;57.50;100493.91;5091107;28;20097;-59
2021/12/04 13:34:24;;;;;;;13.45;9.70;;;;;;;7.81;57.30;100486.22;5091014;28;20090;-59
2021/12/04 13:36:53;;;;;;;14.38;9.75;;;;;;;7.83;57.40;100481.75;5090939;28;20051;-59
2021/12/04 13:39:21;;;;;;;13.00;9.65;;;;;;;7.83;57.66;100479.16;5090900;28;20411;-59
2021/12/04 13:41:50;;;;;;;14.02;8.68;;;;;;;7.81;57.26;100471.38;5090556;28;20101;-59
2021/12/04 13:44:20;;;;;;;12.25;8.07;;;;;;;7.81;57.28;100474.00;5090752;28;20458;-60
2021/12/04 13:46:49;;;;;;;13.55;8.55;;;;;;;7.79;57.04;100461.94;5099883;28;20045;-64
2021/12/04 13:49:26;;;;;;;13.23;9.57;;;;;;;7.78;57.05;100463.72;5111274;27;20118;-59
2021/12/04 13:51:59;;;;;;;13.32;9.02;;;;;;;7.73;56.84;100464.84;5110972;28;20520;-59
2021/12/04 13:54:28;;;;;;;12.00;9.18;;;;;;;7.65;56.91;100466.06;5110575;28;20055;-59
2021/12/04 13:56:55;;;;;;;13.32;9.13;;;;;;;7.57;57.11;100454.28;5110601;28;20097;-60
2021/12/04 13:59:25;;;;;;;12.65;9.13;;;;;;;7.60;56.77;100454.16;5107966;28;20096;-60
2021/12/04 14:01:52;;;;;;;14.13;10.38;;;;;;;7.59;56.64;100455.94;5110966;28;20047;-60
2021/12/04 14:04:20;;;;;;;11.75;9.45;;;;;;;7.60;56.68;100452.38;5091848;28;20097;-59
2021/12/04 14:06:58;;;;;;;14.65;9.23;;;;;;;7.62;56.66;100449.72;5098699;28;20040;-59
2021/12/04 14:09:34;;;;;;;13.88;10.25;;;;;;;7.63;56.84;100462.69;5089620;28;20055;-58
2021/12/04 14:12:02;;;;;;;12.38;9.20;;;;;;;7.61;56.86;100466.31;5098427;28;20378;-60
2021/12/04 14:14:32;;;;;;;15.73;9.07;;;;;;;7.62;57.08;100466.22;5094584;28;20071;-59
2021/12/04 14:17:08;;;;;;;14.68;9.52;;;;;;;7.57;56.89;100463.00;5089169;28;20040;-59
2021/12/04 14:19:36;;;;;;;13.20;9.57;;;;;;;7.58;57.21;100463.81;5089575;28;20051;-59
2021/12/04 14:22:16;;;;;;;12.85;9.15;;;;;;;7.56;57.26;100471.75;5090060;28;20101;-60
2021/12/04 14:24:43;;;;;;;24.83;12.27;;;;;;;7.54;57.54;100476.19;5089866;28;20089;-59
2021/12/04 14:27:15;;;;;;;101.20;33.22;;;;;;;7.56;57.66;100473.53;5089251;28;20480;-60
2021/12/04 14:29:47;;;;;;;133.65;40.38;;;;;;;7.53;58.01;100482.34;5089314;28;20051;-59
2021/12/04 14:32:16;;;;;;;89.43;29.83;;;;;;;7.52;58.15;100483.25;5089612;28;20048;-60
2021/12/04 14:34:43;;;;;;;79.05;26.08;;;;;;;7.50;58.18;100479.88;5089643;28;20048;-59
2021/12/04 14:37:13;;;;;;;49.33;20.77;;;;;;;7.49;58.36;100481.66;5088844;28;20048;-59
2021/12/04 14:39:45;;;;;;;41.42;18.75;;;;;;;7.48;58.36;100481.72;5089762;28;20051;-60
2021/12/04 14:42:22;;;;;;;20.77;12.35;;;;;;;7.43;58.66;100479.31;5089833;28;20044;-59
2021/12/04 14:44:52;;;;;;;19.05;12.25;;;;;;;7.45;58.47;100471.41;5089769;28;20507;-59
2021/12/04 14:47:21;;;;;;;22.77;15.40;;;;;;;7.45;58.75;100466.19;5089490;28;20048;-59
2021/12/04 14:49:51;;;;;;;16.02;11.07;;;;;;;7.44;58.62;100467.97;5089799;28;20117;-59
2021/12/04 14:52:23;;;;;;;92.32;45.58;;;;;;;7.44;58.60;100485.38;5089445;28;20055;-59
2021/12/04 14:54:51;;;;;;;21.95;14.02;;;;;;;7.41;58.78;100482.94;5101287;28;20048;-59
2021/12/04 14:57:24;;;;;;;38.85;20.73;;;;;;;7.41;58.79;100473.31;5109638;28;20048;-60